sensor_id;sensor_type;location;lat;lon;timestamp;temperature;humidity
9209;DHT22;4639;48.862;9.188;2024-02-14T00:00:37;5.30;99.90
9209;DHT22;4639;48.862;9.188;2024-02-14T00:03:03;5.30;99.90
9209;DHT22;4639;48.862;9.188;2024-02-14T00:05:28;5.40;99.90
9209;DHT22;4639;48.862;9.188;2024-02-14T00:07:54;5.40;99.90
9209;DHT22;4639;48.862;9.188;2024-02-14T00:10:20;5.30;99.90
9209;DHT22;4639;48.862;9.188;2024-02-14T00:12:45;5.30;99.90
9209;DHT22;4639;48.862;9.188;2024-02-14T00:15:12;5.30;99.90
9209;DHT22;4639;48.862;9.188;2024-02-14T00:17:38;5.20;99.90
9209;DHT22;4639;48.862;9.188;2024-02-14T00:20:04;5.20;99.90
9209;DHT22;4639;48.862;9.188;2024-02-14T00:22:31;5.20;99.90
9209;DHT22;4639;48.862;9.188;2024-02-14T00:24:57;5.20;99.90
9209;DHT22;4639;48.862;9.188;2024-02-14T00:27:22;5.20;99.90
9209;DHT22;4639;48.862;9.188;2024-02-14T00:29:49;5.40;99.90
9209;DHT22;4639;48.862;9.188;2024-02-14T00:32:15;5.30;99.90
9209;DHT22;4639;48.862;9.188;2024-02-14T00:34:41;5.30;99.90
9209;DHT22;4639;48.862;9.188;2024-02-14T00:37:07;5.30;99.90
9209;DHT22;4639;48.862;9.188;2024-02-14T00:39:32;5.30;99.90
9209;DHT22;4639;48.862;9.188;2024-02-14T00:41:58;5.50;99.90
9209;DHT22;4639;48.862;9.188;2024-02-14T00:44:23;5.30;99.90
9209;DHT22;4639;48.862;9.188;2024-02-14T00:46:49;5.30;99.90
9209;DHT22;4639;48.862;9.188;2024-02-14T00:49:15;5.40;99.90
9209;DHT22;4639;48.862;9.188;2024-02-14T00:51:40;5.40;99.90
9209;DHT22;4639;48.862;9.188;2024-02-14T00:54:06;5.40;99.90
9209;DHT22;4639;48.862;9.188;2024-02-14T00:56:33;5.40;99.90
9209;DHT22;4639;48.862;9.188;2024-02-14T00:59:01;5.50;99.90
9209;DHT22;4639;48.862;9.188;2024-02-14T01:01:27;5.50;99.90
9209;DHT22;4639;48.862;9.188;2024-02-14T01:03:52;5.50;99.90
9209;DHT22;4639;48.862;9.188;2024-02-14T01:06:18;5.60;99.90
9209;DHT22;4639;48.862;9.188;2024-02-14T01:08:45;5.60;99.90
9209;DHT22;4639;48.862;9.188;2024-02-14T01:11:10;5.70;99.90
9209;DHT22;4639;48.862;9.188;2024-02-14T01:13:36;5.70;99.90
9209;DHT22;4639;48.862;9.188;2024-02-14T01:16:05;5.70;99.90
9209;DHT22;4639;48.862;9.188;2024-02-14T01:18:30;5.60;99.90
9209;DHT22;4639;48.862;9.188;2024-02-14T01:20:57;5.70;99.90
9209;DHT22;4639;48.862;9.188;2024-02-14T01:23:24;5.70;99.90
9209;DHT22;4639;48.862;9.188;2024-02-14T01:25:50;5.70;99.90
9209;DHT22;4639;48.862;9.188;2024-02-14T01:28:15;5.80;99.90
9209;DHT22;4639;48.862;9.188;2024-02-14T01:30:42;5.80;99.90
9209;DHT22;4639;48.862;9.188;2024-02-14T01:33:08;5.70;99.90
9209;DHT22;4639;48.862;9.188;2024-02-14T01:35:34;5.90;99.90
9209;DHT22;4639;48.862;9.188;2024-02-14T01:37:59;6.00;99.90
9209;DHT22;4639;48.862;9.188;2024-02-14T01:40:26;6.00;99.90
9209;DHT22;4639;48.862;9.188;2024-02-14T01:42:51;5.90;99.90
9209;DHT22;4639;48.862;9.188;2024-02-14T01:45:17;6.00;99.90
9209;DHT22;4639;48.862;9.188;2024-02-14T01:47:43;6.00;99.90
9209;DHT22;4639;48.862;9.188;2024-02-14T01:50:09;6.30;99.90
9209;DHT22;4639;48.862;9.188;2024-02-14T01:52:37;6.20;99.90
9209;DHT22;4639;48.862;9.188;2024-02-14T01:55:05;6.20;99.90
9209;DHT22;4639;48.862;9.188;2024-02-14T01:57:31;6.40;99.90
9209;DHT22;4639;48.862;9.188;2024-02-14T01:59:59;6.50;99.90
9209;DHT22;4639;48.862;9.188;2024-02-14T02:02:26;6.50;99.90
9209;DHT22;4639;48.862;9.188;2024-02-14T02:04:52;6.60;99.90
9209;DHT22;4639;48.862;9.188;2024-02-14T02:07:18;6.60;99.90
9209;DHT22;4639;48.862;9.188;2024-02-14T02:09:45;6.60;99.90
9209;DHT22;4639;48.862;9.188;2024-02-14T02:12:11;6.60;99.90
9209;DHT22;4639;48.862;9.188;2024-02-14T02:14:37;6.60;99.90
9209;DHT22;4639;48.862;9.188;2024-02-14T02:17:02;6.60;99.90
9209;DHT22;4639;48.862;9.188;2024-02-14T02:19:33;6.50;99.90
9209;DHT22;4639;48.862;9.188;2024-02-14T02:21:59;6.50;99.90
9209;DHT22;4639;48.862;9.188;2024-02-14T02:24:25;6.60;99.90
9209;DHT22;4639;48.862;9.188;2024-02-14T02:26:50;6.60;99.90
9209;DHT22;4639;48.862;9.188;2024-02-14T02:29:16;6.50;99.90
9209;DHT22;4639;48.862;9.188;2024-02-14T02:31:42;6.60;99.90
9209;DHT22;4639;48.862;9.188;2024-02-14T02:34:07;6.60;99.90
9209;DHT22;4639;48.862;9.188;2024-02-14T02:36:36;6.60;99.90
9209;DHT22;4639;48.862;9.188;2024-02-14T02:39:03;6.50;99.90
9209;DHT22;4639;48.862;9.188;2024-02-14T02:41:30;6.50;99.90
9209;DHT22;4639;48.862;9.188;2024-02-14T02:43:57;6.40;99.90
9209;DHT22;4639;48.862;9.188;2024-02-14T02:46:23;6.40;99.90
9209;DHT22;4639;48.862;9.188;2024-02-14T02:48:48;6.30;99.90
9209;DHT22;4639;48.862;9.188;2024-02-14T02:51:16;6.40;99.90
9209;DHT22;4639;48.862;9.188;2024-02-14T02:53:43;6.40;99.90
9209;DHT22;4639;48.862;9.188;2024-02-14T02:56:08;6.50;99.90
9209;DHT22;4639;48.862;9.188;2024-02-14T02:58:34;6.60;99.90
9209;DHT22;4639;48.862;9.188;2024-02-14T03:01:00;6.50;99.90
9209;DHT22;4639;48.862;9.188;2024-02-14T03:03:26;6.40;99.90
9209;DHT22;4639;48.862;9.188;2024-02-14T03:05:53;6.40;99.90
9209;DHT22;4639;48.862;9.188;2024-02-14T03:08:20;6.40;99.90
9209;DHT22;4639;48.862;9.188;2024-02-14T03:10:50;6.30;99.90
9209;DHT22;4639;48.862;9.188;2024-02-14T03:13:15;6.30;99.90
9209;DHT22;4639;48.862;9.188;2024-02-14T03:15:42;6.30;99.90
9209;DHT22;4639;48.862;9.188;2024-02-14T03:18:09;6.40;99.90
9209;DHT22;4639;48.862;9.188;2024-02-14T03:20:35;6.40;99.90
9209;DHT22;4639;48.862;9.188;2024-02-14T03:23:02;6.30;99.90
9209;DHT22;4639;48.862;9.188;2024-02-14T03:25:29;6.30;99.90
9209;DHT22;4639;48.862;9.188;2024-02-14T03:27:54;6.30;99.90
9209;DHT22;4639;48.862;9.188;2024-02-14T03:30:22;6.20;99.90
9209;DHT22;4639;48.862;9.188;2024-02-14T03:32:51;6.20;99.90
9209;DHT22;4639;48.862;9.188;2024-02-14T03:35:20;6.20;99.90
9209;DHT22;4639;48.862;9.188;2024-02-14T03:37:47;6.20;99.90
9209;DHT22;4639;48.862;9.188;2024-02-14T03:40:13;6.20;99.90
9209;DHT22;4639;48.862;9.188;2024-02-14T03:42:39;6.10;99.90
9209;DHT22;4639;48.862;9.188;2024-02-14T03:45:06;6.10;99.90
9209;DHT22;4639;48.862;9.188;2024-02-14T03:47:32;6.20;99.90
9209;DHT22;4639;48.862;9.188;2024-02-14T03:49:59;6.10;99.90
9209;DHT22;4639;48.862;9.188;2024-02-14T03:52:24;6.30;99.90
9209;DHT22;4639;48.862;9.188;2024-02-14T03:54:50;6.20;99.90
9209;DHT22;4639;48.862;9.188;2024-02-14T03:57:16;6.20;99.90
9209;DHT22;4639;48.862;9.188;2024-02-14T03:59:43;6.30;99.90
9209;DHT22;4639;48.862;9.188;2024-02-14T04:02:09;6.30;99.90
9209;DHT22;4639;48.862;9.188;2024-02-14T04:04:36;6.30;99.90
9209;DHT22;4639;48.862;9.188;2024-02-14T04:07:05;6.30;99.90
9209;DHT22;4639;48.862;9.188;2024-02-14T04:09:35;6.20;99.90
9209;DHT22;4639;48.862;9.188;2024-02-14T04:12:01;6.20;99.90
9209;DHT22;4639;48.862;9.188;2024-02-14T04:14:27;6.20;99.90
9209;DHT22;4639;48.862;9.188;2024-02-14T04:16:52;6.30;99.90
9209;DHT22;4639;48.862;9.188;2024-02-14T04:19:18;6.30;99.90
9209;DHT22;4639;48.862;9.188;2024-02-14T04:21:44;6.30;99.90
9209;DHT22;4639;48.862;9.188;2024-02-14T04:24:09;6.30;99.90
9209;DHT22;4639;48.862;9.188;2024-02-14T04:26:35;6.30;99.90
9209;DHT22;4639;48.862;9.188;2024-02-14T04:29:01;6.40;99.90
9209;DHT22;4639;48.862;9.188;2024-02-14T04:31:27;6.40;99.90
9209;DHT22;4639;48.862;9.188;2024-02-14T04:33:58;6.60;99.90
9209;DHT22;4639;48.862;9.188;2024-02-14T04:36:24;6.60;99.90
9209;DHT22;4639;48.862;9.188;2024-02-14T04:38:49;6.60;99.90
9209;DHT22;4639;48.862;9.188;2024-02-14T04:41:16;6.60;99.90
9209;DHT22;4639;48.862;9.188;2024-02-14T04:43:42;6.70;99.90
9209;DHT22;4639;48.862;9.188;2024-02-14T04:46:08;6.60;99.90
9209;DHT22;4639;48.862;9.188;2024-02-14T04:48:34;6.70;99.90
9209;DHT22;4639;48.862;9.188;2024-02-14T04:51:00;6.70;99.90
9209;DHT22;4639;48.862;9.188;2024-02-14T04:53:26;6.70;99.90
9209;DHT22;4639;48.862;9.188;2024-02-14T04:55:52;6.70;99.90
9209;DHT22;4639;48.862;9.188;2024-02-14T04:58:19;6.70;99.90
9209;DHT22;4639;48.862;9.188;2024-02-14T05:00:44;6.70;99.90
9209;DHT22;4639;48.862;9.188;2024-02-14T05:03:10;6.70;99.90
9209;DHT22;4639;48.862;9.188;2024-02-14T05:05:36;6.80;99.90
9209;DHT22;4639;48.862;9.188;2024-02-14T05:08:02;6.80;99.90
9209;DHT22;4639;48.862;9.188;2024-02-14T05:10:31;6.90;99.90
9209;DHT22;4639;48.862;9.188;2024-02-14T05:12:57;6.90;99.90
9209;DHT22;4639;48.862;9.188;2024-02-14T05:15:22;7.00;99.90
9209;DHT22;4639;48.862;9.188;2024-02-14T05:17:49;7.00;99.90
9209;DHT22;4639;48.862;9.188;2024-02-14T05:20:15;7.00;99.90
9209;DHT22;4639;48.862;9.188;2024-02-14T05:22:41;7.20;99.90
9209;DHT22;4639;48.862;9.188;2024-02-14T05:25:07;6.90;99.90
9209;DHT22;4639;48.862;9.188;2024-02-14T05:27:34;6.80;99.90
9209;DHT22;4639;48.862;9.188;2024-02-14T05:30:00;6.70;99.90
9209;DHT22;4639;48.862;9.188;2024-02-14T05:32:26;6.70;99.90
9209;DHT22;4639;48.862;9.188;2024-02-14T05:34:52;6.80;99.90
9209;DHT22;4639;48.862;9.188;2024-02-14T05:37:17;6.80;99.90
9209;DHT22;4639;48.862;9.188;2024-02-14T05:39:43;6.80;99.90
9209;DHT22;4639;48.862;9.188;2024-02-14T05:42:09;6.70;99.90
9209;DHT22;4639;48.862;9.188;2024-02-14T05:44:34;6.70;99.90
9209;DHT22;4639;48.862;9.188;2024-02-14T05:47:00;6.70;99.90
9209;DHT22;4639;48.862;9.188;2024-02-14T05:49:26;6.70;99.90
9209;DHT22;4639;48.862;9.188;2024-02-14T05:51:51;6.70;99.90
9209;DHT22;4639;48.862;9.188;2024-02-14T05:54:18;6.60;99.90
9209;DHT22;4639;48.862;9.188;2024-02-14T05:56:45;6.70;99.90
9209;DHT22;4639;48.862;9.188;2024-02-14T05:59:11;6.60;99.90
9209;DHT22;4639;48.862;9.188;2024-02-14T06:01:36;6.60;99.90
9209;DHT22;4639;48.862;9.188;2024-02-14T06:04:02;6.50;99.90
9209;DHT22;4639;48.862;9.188;2024-02-14T06:06:28;6.50;99.90
9209;DHT22;4639;48.862;9.188;2024-02-14T06:08:53;6.70;99.90
9209;DHT22;4639;48.862;9.188;2024-02-14T06:11:20;6.60;99.90
9209;DHT22;4639;48.862;9.188;2024-02-14T06:13:47;6.60;99.90
9209;DHT22;4639;48.862;9.188;2024-02-14T06:16:13;6.50;99.90
9209;DHT22;4639;48.862;9.188;2024-02-14T06:18:39;6.50;99.90
9209;DHT22;4639;48.862;9.188;2024-02-14T06:21:07;6.40;99.90
9209;DHT22;4639;48.862;9.188;2024-02-14T06:23:33;6.40;99.90
9209;DHT22;4639;48.862;9.188;2024-02-14T06:25:59;6.30;99.90
9209;DHT22;4639;48.862;9.188;2024-02-14T06:28:24;6.30;99.90
9209;DHT22;4639;48.862;9.188;2024-02-14T06:30:50;6.40;99.90
9209;DHT22;4639;48.862;9.188;2024-02-14T06:33:15;6.40;99.90
9209;DHT22;4639;48.862;9.188;2024-02-14T06:35:41;6.40;99.90
9209;DHT22;4639;48.862;9.188;2024-02-14T06:38:07;6.40;99.90
9209;DHT22;4639;48.862;9.188;2024-02-14T06:40:32;6.40;99.90
9209;DHT22;4639;48.862;9.188;2024-02-14T06:42:58;6.50;99.90
9209;DHT22;4639;48.862;9.188;2024-02-14T06:45:26;6.50;99.90
9209;DHT22;4639;48.862;9.188;2024-02-14T06:47:53;6.60;99.90
9209;DHT22;4639;48.862;9.188;2024-02-14T06:50:18;6.60;99.90
9209;DHT22;4639;48.862;9.188;2024-02-14T06:52:44;6.70;99.90
9209;DHT22;4639;48.862;9.188;2024-02-14T06:55:09;6.60;99.90
9209;DHT22;4639;48.862;9.188;2024-02-14T06:57:35;6.60;99.90
9209;DHT22;4639;48.862;9.188;2024-02-14T07:00:01;6.60;99.90
9209;DHT22;4639;48.862;9.188;2024-02-14T07:02:26;6.60;99.90
9209;DHT22;4639;48.862;9.188;2024-02-14T07:04:53;6.70;99.90
9209;DHT22;4639;48.862;9.188;2024-02-14T07:07:20;6.70;99.90
9209;DHT22;4639;48.862;9.188;2024-02-14T07:09:46;6.80;99.90
9209;DHT22;4639;48.862;9.188;2024-02-14T07:12:11;6.80;99.90
9209;DHT22;4639;48.862;9.188;2024-02-14T07:14:37;6.90;99.90
9209;DHT22;4639;48.862;9.188;2024-02-14T07:17:02;6.90;99.90
9209;DHT22;4639;48.862;9.188;2024-02-14T07:19:28;6.90;99.90
9209;DHT22;4639;48.862;9.188;2024-02-14T07:21:54;6.90;99.90
9209;DHT22;4639;48.862;9.188;2024-02-14T07:24:19;6.90;99.90
9209;DHT22;4639;48.862;9.188;2024-02-14T07:26:45;7.00;99.90
9209;DHT22;4639;48.862;9.188;2024-02-14T07:29:11;7.00;99.90
9209;DHT22;4639;48.862;9.188;2024-02-14T07:31:37;7.00;99.90
9209;DHT22;4639;48.862;9.188;2024-02-14T07:34:08;7.10;99.90
9209;DHT22;4639;48.862;9.188;2024-02-14T07:36:34;7.10;99.90
9209;DHT22;4639;48.862;9.188;2024-02-14T07:39:00;7.20;99.90
9209;DHT22;4639;48.862;9.188;2024-02-14T07:41:25;7.20;99.90
9209;DHT22;4639;48.862;9.188;2024-02-14T07:43:51;7.20;99.90
9209;DHT22;4639;48.862;9.188;2024-02-14T07:46:20;7.30;99.90
9209;DHT22;4639;48.862;9.188;2024-02-14T07:48:47;7.40;99.90
9209;DHT22;4639;48.862;9.188;2024-02-14T07:51:13;7.50;99.90
9209;DHT22;4639;48.862;9.188;2024-02-14T07:53:39;7.60;99.90
9209;DHT22;4639;48.862;9.188;2024-02-14T07:56:05;7.60;99.90
9209;DHT22;4639;48.862;9.188;2024-02-14T07:58:31;7.70;99.90
9209;DHT22;4639;48.862;9.188;2024-02-14T08:00:56;7.80;99.90
9209;DHT22;4639;48.862;9.188;2024-02-14T08:03:22;8.00;99.90
9209;DHT22;4639;48.862;9.188;2024-02-14T08:05:48;8.00;99.90
9209;DHT22;4639;48.862;9.188;2024-02-14T08:08:13;8.00;99.90
9209;DHT22;4639;48.862;9.188;2024-02-14T08:10:39;8.10;99.90
9209;DHT22;4639;48.862;9.188;2024-02-14T08:13:04;8.30;99.90
9209;DHT22;4639;48.862;9.188;2024-02-14T08:15:30;8.40;99.90
9209;DHT22;4639;48.862;9.188;2024-02-14T08:17:56;8.50;99.90
9209;DHT22;4639;48.862;9.188;2024-02-14T08:20:22;8.70;99.90
9209;DHT22;4639;48.862;9.188;2024-02-14T08:22:49;8.70;99.90
9209;DHT22;4639;48.862;9.188;2024-02-14T08:25:14;8.90;99.90
9209;DHT22;4639;48.862;9.188;2024-02-14T08:27:40;8.80;99.90
9209;DHT22;4639;48.862;9.188;2024-02-14T08:30:06;8.80;99.90
9209;DHT22;4639;48.862;9.188;2024-02-14T08:32:33;8.80;99.90
9209;DHT22;4639;48.862;9.188;2024-02-14T08:34:59;8.90;99.90
9209;DHT22;4639;48.862;9.188;2024-02-14T08:37:24;8.90;99.90
9209;DHT22;4639;48.862;9.188;2024-02-14T08:39:50;8.90;99.90
9209;DHT22;4639;48.862;9.188;2024-02-14T08:42:16;8.90;99.90
9209;DHT22;4639;48.862;9.188;2024-02-14T08:44:41;9.00;99.90
9209;DHT22;4639;48.862;9.188;2024-02-14T08:47:07;9.10;99.90
9209;DHT22;4639;48.862;9.188;2024-02-14T08:49:33;9.10;99.90
9209;DHT22;4639;48.862;9.188;2024-02-14T08:51:59;9.20;99.90
9209;DHT22;4639;48.862;9.188;2024-02-14T08:54:24;9.30;99.90
9209;DHT22;4639;48.862;9.188;2024-02-14T08:56:50;9.50;99.90
9209;DHT22;4639;48.862;9.188;2024-02-14T08:59:18;9.70;99.90
9209;DHT22;4639;48.862;9.188;2024-02-14T09:01:45;9.70;99.90
9209;DHT22;4639;48.862;9.188;2024-02-14T09:04:11;9.70;99.90
9209;DHT22;4639;48.862;9.188;2024-02-14T09:06:36;9.80;99.90
9209;DHT22;4639;48.862;9.188;2024-02-14T09:09:04;9.80;99.90
9209;DHT22;4639;48.862;9.188;2024-02-14T09:11:30;9.90;99.90
9209;DHT22;4639;48.862;9.188;2024-02-14T09:13:57;9.80;99.90
9209;DHT22;4639;48.862;9.188;2024-02-14T09:16:30;9.90;99.90
9209;DHT22;4639;48.862;9.188;2024-02-14T09:18:55;10.00;99.90
9209;DHT22;4639;48.862;9.188;2024-02-14T09:21:21;10.10;99.90
9209;DHT22;4639;48.862;9.188;2024-02-14T09:23:47;10.20;99.90
9209;DHT22;4639;48.862;9.188;2024-02-14T09:26:13;10.20;99.90
9209;DHT22;4639;48.862;9.188;2024-02-14T09:28:41;10.20;99.90
9209;DHT22;4639;48.862;9.188;2024-02-14T09:31:06;10.30;99.90
9209;DHT22;4639;48.862;9.188;2024-02-14T09:33:35;10.40;99.90
9209;DHT22;4639;48.862;9.188;2024-02-14T09:36:02;10.40;99.90
9209;DHT22;4639;48.862;9.188;2024-02-14T09:38:29;10.40;99.90
9209;DHT22;4639;48.862;9.188;2024-02-14T09:41:00;10.50;99.90
9209;DHT22;4639;48.862;9.188;2024-02-14T09:43:39;10.50;99.90
9209;DHT22;4639;48.862;9.188;2024-02-14T09:46:08;10.60;99.90
9209;DHT22;4639;48.862;9.188;2024-02-14T09:48:34;10.60;99.90
9209;DHT22;4639;48.862;9.188;2024-02-14T09:51:01;10.70;99.90
9209;DHT22;4639;48.862;9.188;2024-02-14T09:53:28;10.90;99.90
9209;DHT22;4639;48.862;9.188;2024-02-14T09:55:54;11.00;99.90
9209;DHT22;4639;48.862;9.188;2024-02-14T09:58:20;11.10;99.90
9209;DHT22;4639;48.862;9.188;2024-02-14T10:00:46;11.00;99.90
9209;DHT22;4639;48.862;9.188;2024-02-14T10:03:12;11.00;99.90
9209;DHT22;4639;48.862;9.188;2024-02-14T10:05:38;11.00;99.90
9209;DHT22;4639;48.862;9.188;2024-02-14T10:08:04;11.10;99.90
9209;DHT22;4639;48.862;9.188;2024-02-14T10:10:32;11.20;99.90
9209;DHT22;4639;48.862;9.188;2024-02-14T10:12:57;11.20;99.90
9209;DHT22;4639;48.862;9.188;2024-02-14T10:15:23;11.30;99.90
9209;DHT22;4639;48.862;9.188;2024-02-14T10:17:49;11.40;99.90
9209;DHT22;4639;48.862;9.188;2024-02-14T10:20:17;11.50;99.90
9209;DHT22;4639;48.862;9.188;2024-02-14T10:22:43;11.80;99.90
9209;DHT22;4639;48.862;9.188;2024-02-14T10:25:10;11.60;99.90
9209;DHT22;4639;48.862;9.188;2024-02-14T10:27:39;12.10;99.90
9209;DHT22;4639;48.862;9.188;2024-02-14T10:30:06;12.00;99.90
9209;DHT22;4639;48.862;9.188;2024-02-14T10:32:44;12.50;99.90
9209;DHT22;4639;48.862;9.188;2024-02-14T10:35:14;13.00;99.90
9209;DHT22;4639;48.862;9.188;2024-02-14T10:37:40;13.60;99.90
9209;DHT22;4639;48.862;9.188;2024-02-14T10:40:06;13.90;99.90
9209;DHT22;4639;48.862;9.188;2024-02-14T10:42:33;14.10;99.90
9209;DHT22;4639;48.862;9.188;2024-02-14T10:44:59;14.30;99.90
9209;DHT22;4639;48.862;9.188;2024-02-14T10:47:30;14.30;99.90
9209;DHT22;4639;48.862;9.188;2024-02-14T10:50:00;14.40;99.90
9209;DHT22;4639;48.862;9.188;2024-02-14T10:52:30;14.60;99.90
9209;DHT22;4639;48.862;9.188;2024-02-14T10:54:59;15.00;99.90
9209;DHT22;4639;48.862;9.188;2024-02-14T10:57:27;15.30;99.90
9209;DHT22;4639;48.862;9.188;2024-02-14T10:59:54;14.90;99.90
9209;DHT22;4639;48.862;9.188;2024-02-14T11:02:22;14.60;99.90
9209;DHT22;4639;48.862;9.188;2024-02-14T11:04:49;14.20;99.90
9209;DHT22;4639;48.862;9.188;2024-02-14T11:07:19;13.90;99.90
9209;DHT22;4639;48.862;9.188;2024-02-14T11:09:45;13.60;99.90
9209;DHT22;4639;48.862;9.188;2024-02-14T11:12:11;13.50;99.90
9209;DHT22;4639;48.862;9.188;2024-02-14T11:14:37;13.20;99.90
9209;DHT22;4639;48.862;9.188;2024-02-14T11:17:13;13.10;99.90
9209;DHT22;4639;48.862;9.188;2024-02-14T11:19:39;13.00;99.90
9209;DHT22;4639;48.862;9.188;2024-02-14T11:22:12;12.90;99.90
9209;DHT22;4639;48.862;9.188;2024-02-14T11:24:38;12.80;99.90
9209;DHT22;4639;48.862;9.188;2024-02-14T11:27:12;12.80;99.90
9209;DHT22;4639;48.862;9.188;2024-02-14T11:29:51;12.90;99.90
9209;DHT22;4639;48.862;9.188;2024-02-14T11:32:17;12.80;99.90
9209;DHT22;4639;48.862;9.188;2024-02-14T11:34:44;12.70;99.90
9209;DHT22;4639;48.862;9.188;2024-02-14T11:37:19;12.80;99.90
9209;DHT22;4639;48.862;9.188;2024-02-14T11:39:46;12.80;99.90
9209;DHT22;4639;48.862;9.188;2024-02-14T11:42:12;12.80;99.90
9209;DHT22;4639;48.862;9.188;2024-02-14T11:44:40;12.80;99.90
9209;DHT22;4639;48.862;9.188;2024-02-14T11:47:09;12.80;99.90
9209;DHT22;4639;48.862;9.188;2024-02-14T11:49:35;12.70;99.90
9209;DHT22;4639;48.862;9.188;2024-02-14T11:52:01;12.70;99.90
9209;DHT22;4639;48.862;9.188;2024-02-14T11:54:29;12.70;99.90
9209;DHT22;4639;48.862;9.188;2024-02-14T11:56:54;12.70;99.90
9209;DHT22;4639;48.862;9.188;2024-02-14T11:59:20;12.60;99.90
9209;DHT22;4639;48.862;9.188;2024-02-14T12:01:48;12.70;99.90
9209;DHT22;4639;48.862;9.188;2024-02-14T12:04:17;12.80;99.90
9209;DHT22;4639;48.862;9.188;2024-02-14T12:06:44;12.80;99.90
9209;DHT22;4639;48.862;9.188;2024-02-14T12:09:09;12.90;99.90
9209;DHT22;4639;48.862;9.188;2024-02-14T12:11:39;13.00;99.90
9209;DHT22;4639;48.862;9.188;2024-02-14T12:14:06;13.10;99.90
9209;DHT22;4639;48.862;9.188;2024-02-14T12:16:34;13.20;99.90
9209;DHT22;4639;48.862;9.188;2024-02-14T12:19:14;13.20;99.90
9209;DHT22;4639;48.862;9.188;2024-02-14T12:21:41;13.20;99.90
9209;DHT22;4639;48.862;9.188;2024-02-14T12:24:09;13.30;99.90
9209;DHT22;4639;48.862;9.188;2024-02-14T12:26:36;13.40;99.90
9209;DHT22;4639;48.862;9.188;2024-02-14T12:29:03;13.40;99.90
9209;DHT22;4639;48.862;9.188;2024-02-14T12:31:35;13.50;99.90
9209;DHT22;4639;48.862;9.188;2024-02-14T12:34:03;14.00;99.90
9209;DHT22;4639;48.862;9.188;2024-02-14T12:36:33;14.40;99.90
9209;DHT22;4639;48.862;9.188;2024-02-14T12:39:00;14.60;99.90
9209;DHT22;4639;48.862;9.188;2024-02-14T12:41:28;15.00;99.90
9209;DHT22;4639;48.862;9.188;2024-02-14T12:43:55;15.20;99.90
9209;DHT22;4639;48.862;9.188;2024-02-14T12:46:21;15.60;99.90
9209;DHT22;4639;48.862;9.188;2024-02-14T12:48:46;15.80;99.90
9209;DHT22;4639;48.862;9.188;2024-02-14T12:51:13;16.10;99.90
9209;DHT22;4639;48.862;9.188;2024-02-14T12:53:39;16.40;99.90
9209;DHT22;4639;48.862;9.188;2024-02-14T12:56:05;16.20;99.90
9209;DHT22;4639;48.862;9.188;2024-02-14T12:58:32;16.10;99.90
9209;DHT22;4639;48.862;9.188;2024-02-14T13:00:57;16.10;99.90
9209;DHT22;4639;48.862;9.188;2024-02-14T13:03:24;15.80;99.90
9209;DHT22;4639;48.862;9.188;2024-02-14T13:05:50;15.70;99.90
9209;DHT22;4639;48.862;9.188;2024-02-14T13:08:18;15.60;99.90
9209;DHT22;4639;48.862;9.188;2024-02-14T13:10:44;15.50;99.90
9209;DHT22;4639;48.862;9.188;2024-02-14T13:13:10;15.40;99.90
9209;DHT22;4639;48.862;9.188;2024-02-14T13:15:36;15.40;99.90
9209;DHT22;4639;48.862;9.188;2024-02-14T13:18:02;15.20;99.90
9209;DHT22;4639;48.862;9.188;2024-02-14T13:20:28;15.00;99.90
9209;DHT22;4639;48.862;9.188;2024-02-14T13:22:54;15.10;99.90
9209;DHT22;4639;48.862;9.188;2024-02-14T13:25:20;14.50;99.90
9209;DHT22;4639;48.862;9.188;2024-02-14T13:27:46;14.40;99.90
9209;DHT22;4639;48.862;9.188;2024-02-14T13:30:12;14.40;99.90
9209;DHT22;4639;48.862;9.188;2024-02-14T13:32:38;14.40;99.90
9209;DHT22;4639;48.862;9.188;2024-02-14T13:35:04;14.50;99.90
9209;DHT22;4639;48.862;9.188;2024-02-14T13:37:31;14.60;99.90
9209;DHT22;4639;48.862;9.188;2024-02-14T13:39:57;14.80;99.90
9209;DHT22;4639;48.862;9.188;2024-02-14T13:42:23;14.80;99.90
9209;DHT22;4639;48.862;9.188;2024-02-14T13:44:48;14.80;99.90
9209;DHT22;4639;48.862;9.188;2024-02-14T13:47:17;14.70;99.90
9209;DHT22;4639;48.862;9.188;2024-02-14T13:49:46;14.60;99.90
9209;DHT22;4639;48.862;9.188;2024-02-14T13:52:12;14.60;99.90
9209;DHT22;4639;48.862;9.188;2024-02-14T13:54:37;14.70;99.90
9209;DHT22;4639;48.862;9.188;2024-02-14T13:57:04;14.80;99.90
9209;DHT22;4639;48.862;9.188;2024-02-14T13:59:29;14.70;99.90
9209;DHT22;4639;48.862;9.188;2024-02-14T14:01:55;14.80;99.90
9209;DHT22;4639;48.862;9.188;2024-02-14T14:04:20;14.90;99.90
9209;DHT22;4639;48.862;9.188;2024-02-14T14:06:46;14.80;99.90
9209;DHT22;4639;48.862;9.188;2024-02-14T14:09:12;14.80;99.90
9209;DHT22;4639;48.862;9.188;2024-02-14T14:11:38;15.10;99.90
9209;DHT22;4639;48.862;9.188;2024-02-14T14:14:04;15.10;99.90
9209;DHT22;4639;48.862;9.188;2024-02-14T14:16:30;15.00;99.90
9209;DHT22;4639;48.862;9.188;2024-02-14T14:18:58;15.00;99.90
9209;DHT22;4639;48.862;9.188;2024-02-14T14:21:24;15.00;99.90
9209;DHT22;4639;48.862;9.188;2024-02-14T14:23:49;14.90;99.90
9209;DHT22;4639;48.862;9.188;2024-02-14T14:26:15;14.90;99.90
9209;DHT22;4639;48.862;9.188;2024-02-14T14:28:40;14.90;99.90
9209;DHT22;4639;48.862;9.188;2024-02-14T14:31:07;14.90;99.90
9209;DHT22;4639;48.862;9.188;2024-02-14T14:33:36;14.80;99.90
9209;DHT22;4639;48.862;9.188;2024-02-14T14:36:02;14.80;99.90
9209;DHT22;4639;48.862;9.188;2024-02-14T14:38:28;14.60;99.90
9209;DHT22;4639;48.862;9.188;2024-02-14T14:40:55;14.50;99.90
9209;DHT22;4639;48.862;9.188;2024-02-14T14:43:21;14.50;99.90
9209;DHT22;4639;48.862;9.188;2024-02-14T14:45:47;14.50;99.90
9209;DHT22;4639;48.862;9.188;2024-02-14T14:48:12;14.60;99.90
9209;DHT22;4639;48.862;9.188;2024-02-14T14:50:38;14.60;99.90
9209;DHT22;4639;48.862;9.188;2024-02-14T14:53:04;14.60;99.90
9209;DHT22;4639;48.862;9.188;2024-02-14T14:56:00;14.50;99.90
9209;DHT22;4639;48.862;9.188;2024-02-14T14:58:26;14.50;99.90
9209;DHT22;4639;48.862;9.188;2024-02-14T15:00:53;14.60;99.90
9209;DHT22;4639;48.862;9.188;2024-02-14T15:03:24;14.60;99.90
9209;DHT22;4639;48.862;9.188;2024-02-14T15:05:49;14.70;99.90
9209;DHT22;4639;48.862;9.188;2024-02-14T15:08:15;14.50;99.90
9209;DHT22;4639;48.862;9.188;2024-02-14T15:10:43;14.40;99.90
9209;DHT22;4639;48.862;9.188;2024-02-14T15:13:09;14.50;99.90
9209;DHT22;4639;48.862;9.188;2024-02-14T15:15:35;14.50;99.90
9209;DHT22;4639;48.862;9.188;2024-02-14T15:18:03;14.50;99.90
9209;DHT22;4639;48.862;9.188;2024-02-14T15:20:30;14.50;99.90
9209;DHT22;4639;48.862;9.188;2024-02-14T15:22:56;14.40;99.90
9209;DHT22;4639;48.862;9.188;2024-02-14T15:25:22;14.40;99.90
9209;DHT22;4639;48.862;9.188;2024-02-14T15:27:51;14.40;99.90
9209;DHT22;4639;48.862;9.188;2024-02-14T15:30:26;14.30;99.90
9209;DHT22;4639;48.862;9.188;2024-02-14T15:33:11;14.40;99.90
9209;DHT22;4639;48.862;9.188;2024-02-14T15:35:51;14.40;99.90
9209;DHT22;4639;48.862;9.188;2024-02-14T15:38:17;14.40;99.90
9209;DHT22;4639;48.862;9.188;2024-02-14T15:40:45;14.40;99.90
9209;DHT22;4639;48.862;9.188;2024-02-14T15:43:11;14.40;99.90
9209;DHT22;4639;48.862;9.188;2024-02-14T15:45:36;14.40;99.90
9209;DHT22;4639;48.862;9.188;2024-02-14T15:48:02;14.30;99.90
9209;DHT22;4639;48.862;9.188;2024-02-14T15:50:28;14.40;99.90
9209;DHT22;4639;48.862;9.188;2024-02-14T15:52:53;14.60;99.90
9209;DHT22;4639;48.862;9.188;2024-02-14T15:55:19;14.30;99.90
9209;DHT22;4639;48.862;9.188;2024-02-14T15:57:46;14.20;99.90
9209;DHT22;4639;48.862;9.188;2024-02-14T16:00:13;14.20;99.90
9209;DHT22;4639;48.862;9.188;2024-02-14T16:02:40;14.30;99.90
9209;DHT22;4639;48.862;9.188;2024-02-14T16:05:07;14.30;99.90
9209;DHT22;4639;48.862;9.188;2024-02-14T16:07:35;14.30;99.90